createdAt,value
2023-01-09T00:01:49.211Z,4.90
2023-01-09T00:04:18.054Z,4.80
2023-01-09T00:06:53.980Z,4.90
2023-01-09T00:09:22.663Z,4.90
2023-01-09T00:11:51.635Z,4.80
2023-01-09T00:14:20.423Z,4.80
2023-01-09T00:16:48.736Z,4.80
2023-01-09T00:19:16.980Z,4.80
2023-01-09T00:21:45.221Z,4.80
2023-01-09T00:24:14.801Z,4.70
2023-01-09T00:26:42.950Z,4.70
2023-01-09T00:29:12.207Z,4.70
2023-01-09T00:31:40.344Z,4.80
2023-01-09T00:34:10.483Z,4.80
2023-01-09T00:36:40.918Z,4.80
2023-01-09T00:39:09.113Z,4.80
2023-01-09T00:41:41.730Z,4.70
2023-01-09T00:44:14.418Z,4.80
2023-01-09T00:46:46.067Z,4.80
2023-01-09T00:49:15.938Z,4.80
2023-01-09T00:51:44.460Z,4.80
2023-01-09T00:54:15.209Z,4.80
2023-01-09T00:56:45.079Z,4.70
2023-01-09T00:59:15.956Z,4.70
2023-01-09T01:01:44.415Z,4.80
2023-01-09T01:04:29.896Z,4.80
2023-01-09T01:07:27.035Z,4.80
2023-01-09T01:09:55.186Z,4.80
2023-01-09T01:12:24.698Z,4.80
2023-01-09T01:14:54.219Z,4.80
2023-01-09T01:17:22.501Z,4.80
2023-01-09T01:19:50.778Z,4.80
2023-01-09T01:22:21.555Z,4.80
2023-01-09T01:24:49.832Z,4.90
2023-01-09T01:27:17.992Z,4.90
2023-01-09T01:29:47.773Z,4.80
2023-01-09T01:32:15.932Z,4.90
2023-01-09T01:34:45.457Z,4.90
2023-01-09T01:37:14.839Z,4.80
2023-01-09T01:39:43.247Z,4.80
2023-01-09T01:42:13.615Z,4.70
2023-01-09T01:45:06.520Z,4.70
2023-01-09T01:47:50.502Z,4.80
2023-01-09T01:50:38.909Z,4.70
2023-01-09T01:53:12.260Z,4.70
2023-01-09T01:55:44.855Z,4.70
2023-01-09T01:58:16.536Z,4.80
2023-01-09T02:00:48.728Z,4.80
2023-01-09T02:03:19.930Z,4.80
2023-01-09T02:05:51.134Z,4.80
2023-01-09T02:08:19.711Z,4.80
2023-01-09T02:10:48.608Z,4.80
2023-01-09T02:13:19.746Z,4.90
2023-01-09T02:16:05.677Z,4.90
2023-01-09T02:18:48.026Z,4.90
2023-01-09T02:21:24.924Z,4.90
2023-01-09T02:24:09.812Z,5.00
2023-01-09T02:27:14.795Z,5.00
2023-01-09T02:30:10.494Z,5.00
2023-01-09T02:33:00.496Z,5.00
2023-01-09T02:36:07.820Z,5.00
2023-01-09T02:38:43.714Z,5.10
2023-01-09T02:41:17.048Z,5.10
2023-01-09T02:43:45.291Z,5.10
2023-01-09T02:46:20.993Z,5.10
2023-01-09T02:48:53.834Z,5.10
2023-01-09T02:51:29.097Z,5.10
2023-01-09T02:54:05.527Z,5.20
2023-01-09T02:56:54.537Z,5.20
2023-01-09T02:59:30.536Z,5.20
2023-01-09T03:02:29.640Z,5.20
2023-01-09T03:05:08.388Z,5.20
2023-01-09T03:07:40.551Z,5.30
2023-01-09T03:10:15.215Z,5.20
2023-01-09T03:12:44.637Z,5.30
2023-01-09T03:15:16.131Z,5.30
2023-01-09T03:17:48.549Z,5.30
2023-01-09T03:20:23.333Z,5.30
2023-01-09T03:22:56.193Z,5.30
2023-01-09T03:25:26.031Z,5.30
2023-01-09T03:27:58.769Z,5.30
2023-01-09T03:30:28.654Z,5.30
2023-01-09T03:32:57.288Z,5.30
2023-01-09T03:35:27.496Z,5.30
2023-01-09T03:37:56.167Z,5.30
2023-01-09T03:40:24.316Z,5.40
2023-01-09T03:42:52.457Z,5.40
2023-01-09T03:45:20.632Z,5.40
2023-01-09T03:47:48.810Z,5.40
2023-01-09T03:50:17.336Z,5.40
2023-01-09T03:52:46.869Z,5.40
2023-01-09T03:55:15.798Z,5.40
2023-01-09T03:57:44.188Z,5.40
2023-01-09T04:00:13.647Z,5.40
2023-01-09T04:02:44.300Z,5.30
2023-01-09T04:05:12.461Z,5.40
2023-01-09T04:07:41.047Z,5.30
2023-01-09T04:10:12.176Z,5.30
2023-01-09T04:12:40.506Z,5.30
2023-01-09T04:15:09.484Z,5.30
2023-01-09T04:17:40.177Z,5.30
2023-01-09T04:20:09.375Z,5.30
2023-01-09T04:22:37.645Z,5.30
2023-01-09T04:25:06.717Z,5.30
2023-01-09T04:27:38.956Z,5.30
2023-01-09T04:30:08.487Z,5.20
2023-01-09T04:32:36.669Z,5.30
2023-01-09T04:35:09.172Z,5.30
2023-01-09T04:37:37.823Z,5.30
2023-01-09T04:40:08.157Z,5.30
2023-01-09T04:42:36.327Z,5.30
2023-01-09T04:45:10.836Z,5.30
2023-01-09T04:47:39.213Z,5.30
2023-01-09T04:50:07.769Z,5.20
2023-01-09T04:52:38.173Z,5.30
2023-01-09T04:55:10.005Z,5.30
2023-01-09T04:57:40.415Z,5.30
2023-01-09T05:00:12.427Z,5.30
2023-01-09T05:02:40.780Z,5.40
2023-01-09T05:05:11.731Z,5.40
2023-01-09T05:07:40.601Z,5.40
2023-01-09T05:10:10.512Z,5.50
2023-01-09T05:12:39.888Z,5.50
2023-01-09T05:15:10.886Z,5.50
2023-01-09T05:17:39.139Z,5.50
2023-01-09T05:20:08.251Z,5.40
2023-01-09T05:22:36.516Z,5.40
2023-01-09T05:25:05.042Z,5.50
2023-01-09T05:27:33.208Z,5.50
2023-01-09T05:30:01.457Z,5.40
2023-01-09T05:32:31.032Z,5.40
2023-01-09T05:34:59.281Z,5.50
2023-01-09T05:37:27.416Z,5.50
2023-01-09T05:39:55.644Z,5.60
2023-01-09T05:42:23.797Z,5.60
2023-01-09T05:44:51.994Z,5.60
2023-01-09T05:47:20.137Z,5.60
2023-01-09T05:49:49.691Z,5.60
2023-01-09T05:52:17.924Z,5.60
2023-01-09T05:54:46.100Z,5.70
2023-01-09T05:57:14.280Z,5.70
2023-01-09T05:59:45.528Z,5.70
2023-01-09T06:02:13.794Z,5.70
2023-01-09T06:04:43.871Z,5.70
2023-01-09T06:07:18.046Z,5.70
2023-01-09T06:09:48.148Z,5.70
2023-01-09T06:12:16.300Z,5.80
2023-01-09T06:14:44.583Z,5.70
2023-01-09T06:17:12.764Z,5.70
2023-01-09T06:19:40.960Z,5.80
2023-01-09T06:22:09.169Z,5.70
2023-01-09T06:24:38.683Z,5.80
2023-01-09T06:27:07.728Z,5.80
2023-01-09T06:29:38.369Z,5.70
2023-01-09T06:32:07.029Z,5.70
2023-01-09T06:34:35.216Z,5.70
2023-01-09T06:37:03.534Z,5.70
2023-01-09T06:39:31.843Z,5.70
2023-01-09T06:42:01.495Z,5.70
2023-01-09T06:44:29.798Z,5.70
2023-01-09T06:47:00.405Z,5.70
2023-01-09T06:49:28.629Z,5.70
2023-01-09T06:51:56.781Z,5.60
2023-01-09T06:54:27.403Z,5.60
2023-01-09T06:56:56.787Z,5.70
2023-01-09T06:59:26.383Z,5.70
2023-01-09T07:01:54.678Z,5.70
2023-01-09T07:04:23.216Z,5.70
2023-01-09T07:06:53.645Z,5.80
2023-01-09T07:09:21.775Z,5.70
2023-01-09T07:11:49.988Z,5.70
2023-01-09T07:14:20.023Z,5.80
2023-01-09T07:16:49.578Z,5.70
2023-01-09T07:19:17.745Z,5.70
2023-01-09T07:21:48.789Z,5.70
2023-01-09T07:24:17.072Z,5.80
2023-01-09T07:26:45.295Z,5.80
2023-01-09T07:29:13.701Z,5.80
2023-01-09T07:31:41.921Z,5.80
2023-01-09T07:34:11.446Z,5.80
2023-01-09T07:36:39.674Z,5.80
2023-01-09T07:39:09.158Z,5.90
2023-01-09T07:41:37.340Z,5.90
2023-01-09T07:44:11.206Z,5.90
2023-01-09T07:46:40.232Z,6.00
2023-01-09T07:49:08.819Z,6.00
2023-01-09T07:51:43.054Z,6.00
2023-01-09T07:54:12.625Z,6.00
2023-01-09T07:56:41.207Z,6.10
2023-01-09T07:59:09.565Z,6.00
2023-01-09T08:01:37.889Z,6.00
2023-01-09T08:04:06.248Z,6.10
2023-01-09T08:06:38.360Z,6.10
2023-01-09T08:09:06.572Z,6.20
2023-01-09T08:11:34.931Z,6.30
2023-01-09T08:14:03.080Z,6.30
2023-01-09T08:16:34.051Z,6.30
2023-01-09T08:19:02.299Z,6.30
2023-01-09T08:21:30.454Z,6.30
2023-01-09T08:24:03.783Z,6.30
2023-01-09T08:26:31.939Z,6.30
2023-01-09T08:29:00.109Z,6.30
2023-01-09T08:31:28.513Z,6.30
2023-01-09T08:33:56.732Z,6.30
2023-01-09T08:36:25.368Z,6.30
2023-01-09T08:38:53.700Z,6.30
2023-01-09T08:41:40.612Z,6.40
2023-01-09T08:44:28.320Z,6.50
2023-01-09T08:47:08.506Z,6.60
2023-01-09T08:49:38.442Z,6.80
2023-01-09T08:52:07.639Z,6.90
2023-01-09T08:54:37.020Z,7.00
2023-01-09T08:57:06.563Z,7.20
2023-01-09T08:59:35.065Z,7.30
2023-01-09T09:02:03.273Z,7.40
2023-01-09T09:04:31.685Z,7.50
2023-01-09T09:06:59.831Z,7.60
2023-01-09T09:09:28.019Z,7.50
2023-01-09T09:11:56.155Z,7.50
2023-01-09T09:14:43.108Z,7.40
2023-01-09T09:17:11.264Z,7.40
2023-01-09T09:19:42.571Z,7.40
2023-01-09T09:22:13.712Z,7.40
2023-01-09T09:24:42.016Z,7.40
2023-01-09T09:27:13.151Z,7.40
2023-01-09T09:29:42.677Z,7.40
2023-01-09T09:32:10.959Z,7.40
2023-01-09T09:34:39.103Z,7.30
2023-01-09T09:37:07.375Z,7.30
2023-01-09T09:39:38.025Z,7.40
2023-01-09T09:42:45.049Z,7.40
2023-01-09T09:45:25.785Z,7.50
2023-01-09T09:48:01.891Z,7.50
2023-01-09T09:50:51.819Z,7.60
2023-01-09T09:53:27.498Z,7.50
2023-01-09T09:55:57.594Z,7.50
2023-01-09T09:58:31.805Z,7.50
2023-01-09T10:01:02.926Z,7.40
2023-01-09T10:03:38.534Z,7.40
2023-01-09T10:06:12.065Z,7.40
2023-01-09T10:08:48.141Z,7.40
2023-01-09T10:11:23.613Z,7.40
2023-01-09T10:14:13.186Z,7.50
2023-01-09T10:17:03.429Z,7.40
2023-01-09T10:19:48.773Z,7.40
2023-01-09T10:22:28.369Z,7.40
2023-01-09T10:25:09.683Z,7.40
2023-01-09T10:27:53.856Z,7.40
2023-01-09T10:30:31.245Z,7.30
2023-01-09T10:33:14.767Z,7.30
2023-01-09T10:36:07.588Z,7.40
2023-01-09T10:38:39.729Z,7.30
2023-01-09T10:41:14.430Z,7.20
2023-01-09T10:43:47.496Z,7.20
2023-01-09T10:46:21.948Z,7.20
2023-01-09T10:48:56.540Z,7.20
2023-01-09T10:51:29.967Z,7.20
2023-01-09T10:53:58.379Z,7.20
2023-01-09T10:56:30.127Z,7.10
2023-01-09T10:58:58.419Z,7.20
2023-01-09T11:01:29.412Z,7.20
2023-01-09T11:04:01.262Z,7.20
2023-01-09T11:06:38.304Z,7.10
2023-01-09T11:09:06.983Z,7.10
2023-01-09T11:11:36.721Z,7.10
2023-01-09T11:14:15.062Z,7.10
2023-01-09T11:16:56.074Z,7.20
2023-01-09T11:19:27.029Z,7.20
2023-01-09T11:22:09.703Z,7.20
2023-01-09T11:24:37.936Z,7.20
2023-01-09T11:27:27.405Z,7.20
2023-01-09T11:30:20.161Z,7.20
2023-01-09T11:32:49.561Z,7.20
2023-01-09T11:35:27.241Z,7.10
2023-01-09T11:38:07.865Z,7.10
2023-01-09T11:40:47.639Z,7.10
2023-01-09T11:43:20.351Z,7.10
2023-01-09T11:46:00.619Z,7.10
2023-01-09T11:48:39.013Z,7.00
2023-01-09T11:51:21.970Z,7.00
2023-01-09T11:54:07.501Z,6.90
2023-01-09T11:56:37.998Z,6.90
2023-01-09T11:59:12.235Z,6.90
2023-01-09T12:02:06.542Z,6.90
2023-01-09T12:04:38.866Z,6.80
2023-01-09T12:07:58.086Z,6.80
2023-01-09T12:10:54.477Z,6.90
2023-01-09T12:13:35.582Z,6.80
2023-01-09T12:16:16.124Z,6.80
2023-01-09T12:19:02.006Z,6.90
2023-01-09T12:21:35.811Z,6.80
2023-01-09T12:24:31.443Z,6.90
2023-01-09T12:27:12.665Z,6.90
2023-01-09T12:30:05.982Z,6.90
2023-01-09T12:32:48.097Z,6.90
2023-01-09T12:35:29.176Z,6.90
2023-01-09T12:38:12.935Z,7.00
2023-01-09T12:41:06.824Z,7.00
2023-01-09T12:43:48.329Z,7.10
2023-01-09T12:46:19.558Z,7.10
2023-01-09T12:49:13.386Z,7.10
2023-01-09T12:51:45.504Z,7.10
2023-01-09T12:54:23.923Z,7.10
2023-01-09T12:56:57.000Z,7.20
2023-01-09T12:59:32.553Z,7.10
2023-01-09T13:02:08.228Z,7.10
2023-01-09T13:04:41.781Z,7.10
2023-01-09T13:07:19.142Z,7.00
2023-01-09T13:09:51.406Z,7.00
2023-01-09T13:12:22.502Z,7.00
2023-01-09T13:14:57.299Z,7.00
2023-01-09T13:17:31.608Z,7.00
2023-01-09T13:20:00.168Z,7.10
2023-01-09T13:22:30.256Z,7.10
2023-01-09T13:25:15.962Z,7.10
2023-01-09T13:27:50.518Z,7.20
2023-01-09T13:30:40.995Z,7.20
2023-01-09T13:33:19.941Z,7.30
2023-01-09T13:35:53.467Z,7.30
2023-01-09T13:38:25.179Z,7.30
2023-01-09T13:41:29.741Z,7.30
2023-01-09T13:44:00.524Z,7.30
2023-01-09T13:46:43.328Z,7.30
2023-01-09T13:49:33.850Z,7.30
2023-01-09T13:52:05.544Z,7.40
2023-01-09T13:55:03.599Z,7.40
2023-01-09T13:57:34.999Z,7.40
2023-01-09T14:00:36.535Z,7.50
2023-01-09T14:03:19.492Z,7.50
2023-01-09T14:06:11.958Z,7.50
2023-01-09T14:08:41.949Z,7.50
2023-01-09T14:11:11.138Z,7.50
2023-01-09T14:13:45.939Z,7.50
2023-01-09T14:16:20.801Z,7.60
2023-01-09T14:18:53.591Z,7.60
2023-01-09T14:21:22.234Z,7.50
2023-01-09T14:24:01.168Z,7.50
2023-01-09T14:26:44.743Z,7.50
2023-01-09T14:29:43.465Z,7.60
2023-01-09T14:32:45.277Z,7.60
2023-01-09T14:35:28.213Z,7.60
2023-01-09T14:38:26.631Z,7.60
2023-01-09T14:41:00.079Z,7.70
2023-01-09T14:43:39.282Z,7.70
2023-01-09T14:46:12.923Z,7.70
2023-01-09T14:48:52.676Z,7.70
2023-01-09T14:51:27.152Z,7.80
2023-01-09T14:53:57.320Z,7.80
2023-01-09T14:56:29.147Z,7.80
2023-01-09T14:59:13.976Z,7.80
2023-01-09T15:01:45.521Z,7.80
2023-01-09T15:04:31.689Z,7.80
2023-01-09T15:07:01.557Z,7.80
2023-01-09T15:09:34.255Z,7.90
2023-01-09T15:12:07.713Z,7.90
2023-01-09T15:14:40.050Z,7.80
2023-01-09T15:17:16.088Z,7.80
2023-01-09T15:19:46.644Z,7.80
2023-01-09T15:22:25.298Z,7.80
2023-01-09T15:24:53.508Z,7.80
2023-01-09T15:27:23.411Z,7.80
2023-01-09T15:29:52.527Z,7.90
2023-01-09T15:32:26.026Z,7.90
2023-01-09T15:34:56.105Z,7.90
2023-01-09T15:37:30.362Z,7.90
2023-01-09T15:40:00.342Z,7.90
2023-01-09T15:42:48.961Z,8.00
2023-01-09T15:45:24.970Z,7.90
2023-01-09T15:47:53.519Z,8.00
2023-01-09T15:50:27.816Z,8.00
2023-01-09T15:52:58.094Z,8.00
2023-01-09T15:55:35.198Z,8.10
2023-01-09T15:58:04.598Z,8.10
2023-01-09T16:00:43.915Z,8.20
2023-01-09T16:03:21.283Z,8.20
2023-01-09T16:05:53.043Z,8.20
2023-01-09T16:08:29.597Z,8.20
2023-01-09T16:11:02.740Z,8.30
2023-01-09T16:13:33.823Z,8.30
2023-01-09T16:16:05.671Z,8.30
2023-01-09T16:18:38.417Z,8.30
2023-01-09T16:21:32.816Z,8.30
2023-01-09T16:24:06.185Z,8.30
2023-01-09T16:26:35.083Z,8.30
2023-01-09T16:29:29.486Z,8.30
2023-01-09T16:32:02.284Z,8.30
2023-01-09T16:34:34.696Z,8.40
2023-01-09T16:37:03.885Z,8.30
2023-01-09T16:39:33.537Z,8.30
2023-01-09T16:42:27.893Z,8.40
2023-01-09T16:44:56.252Z,8.40
2023-01-09T16:47:24.431Z,8.40
2023-01-09T16:49:52.618Z,8.40
2023-01-09T16:52:20.799Z,8.40
2023-01-09T16:54:50.386Z,8.50
2023-01-09T16:57:19.797Z,8.50
2023-01-09T16:59:48.135Z,8.50
2023-01-09T17:02:19.287Z,8.50
2023-01-09T17:04:47.853Z,8.50
2023-01-09T17:07:17.673Z,8.50
2023-01-09T17:09:47.676Z,8.50
2023-01-09T17:12:20.072Z,8.50
2023-01-09T17:14:48.960Z,8.60
2023-01-09T17:17:17.960Z,8.50
2023-01-09T17:19:46.816Z,8.60
2023-01-09T17:22:17.299Z,8.60
2023-01-09T17:25:03.126Z,8.60
2023-01-09T17:27:53.021Z,8.60
2023-01-09T17:30:22.252Z,8.60
2023-01-09T17:32:50.723Z,8.60
2023-01-09T17:35:18.939Z,8.60
2023-01-09T17:37:47.339Z,8.60
2023-01-09T17:40:20.033Z,8.60
2023-01-09T17:42:51.949Z,8.60
2023-01-09T17:45:20.287Z,8.60
2023-01-09T17:47:48.520Z,8.60
2023-01-09T17:50:20.609Z,8.60
2023-01-09T17:52:49.330Z,8.60
2023-01-09T17:55:17.749Z,8.60
2023-01-09T17:57:46.010Z,8.60
2023-01-09T18:00:26.602Z,8.60
2023-01-09T18:02:55.222Z,8.60
2023-01-09T18:05:24.078Z,8.60
2023-01-09T18:07:52.712Z,8.60
2023-01-09T18:10:24.335Z,8.60
2023-01-09T18:12:56.891Z,8.60
2023-01-09T18:15:26.504Z,8.60
2023-01-09T18:17:54.947Z,8.60
2023-01-09T18:20:23.154Z,8.60
2023-01-09T18:22:51.747Z,8.60
2023-01-09T18:25:19.974Z,8.60
2023-01-09T18:27:48.155Z,8.60
2023-01-09T18:30:16.551Z,8.60
2023-01-09T18:32:46.080Z,8.60
2023-01-09T18:35:14.248Z,8.60
2023-01-09T18:37:44.926Z,8.60
2023-01-09T18:40:13.757Z,8.60
2023-01-09T18:42:42.955Z,8.60
2023-01-09T18:45:11.697Z,8.60
2023-01-09T18:47:42.219Z,8.60
2023-01-09T18:50:12.692Z,8.60
2023-01-09T18:52:40.906Z,8.70
2023-01-09T18:55:11.668Z,8.70
2023-01-09T18:57:39.918Z,8.70
2023-01-09T19:00:12.691Z,8.70
2023-01-09T19:02:41.004Z,8.70
2023-01-09T19:05:11.223Z,8.70
2023-01-09T19:07:39.474Z,8.70
2023-01-09T19:10:09.196Z,8.70
2023-01-09T19:12:37.539Z,8.70
2023-01-09T19:15:10.996Z,8.70
2023-01-09T19:17:39.641Z,8.80
2023-01-09T19:20:15.245Z,8.70
2023-01-09T19:22:43.397Z,8.80
2023-01-09T19:25:12.546Z,8.80
2023-01-09T19:27:40.807Z,8.70
2023-01-09T19:30:11.206Z,8.80
2023-01-09T19:32:40.985Z,8.80
2023-01-09T19:35:11.142Z,8.70
2023-01-09T19:37:39.373Z,8.80
2023-01-09T19:40:08.812Z,8.80
2023-01-09T19:42:37.337Z,8.80
2023-01-09T19:45:06.332Z,8.90
2023-01-09T19:47:36.100Z,8.80
2023-01-09T19:50:05.989Z,8.90
2023-01-09T19:52:37.413Z,8.80
2023-01-09T19:55:06.325Z,8.80
2023-01-09T19:57:36.987Z,8.90
2023-01-09T20:00:05.951Z,8.90
2023-01-09T20:02:40.633Z,8.90
2023-01-09T20:05:09.845Z,8.90
2023-01-09T20:07:42.140Z,8.90
2023-01-09T20:10:11.284Z,8.90
2023-01-09T20:12:39.452Z,8.90
2023-01-09T20:15:12.775Z,8.80
2023-01-09T20:17:41.076Z,8.80
2023-01-09T20:20:12.854Z,8.80
2023-01-09T20:22:42.386Z,8.80
2023-01-09T20:25:11.382Z,8.80
2023-01-09T20:27:39.596Z,8.90
2023-01-09T20:30:09.571Z,8.90
2023-01-09T20:32:38.336Z,8.90
2023-01-09T20:35:07.299Z,8.90
2023-01-09T20:37:40.066Z,8.80
2023-01-09T20:40:11.511Z,8.70
2023-01-09T20:42:42.201Z,8.70
2023-01-09T20:45:12.883Z,8.70
2023-01-09T20:47:41.061Z,8.70
2023-01-09T20:50:18.763Z,8.60
2023-01-09T20:52:47.209Z,8.60
2023-01-09T20:55:16.911Z,8.60
2023-01-09T20:57:45.552Z,8.60
2023-01-09T21:00:14.907Z,8.60
2023-01-09T21:02:43.124Z,8.60
2023-01-09T21:05:11.599Z,8.50
2023-01-09T21:07:39.837Z,8.60
2023-01-09T21:10:08.868Z,8.50
2023-01-09T21:12:38.535Z,8.60
2023-01-09T21:15:11.543Z,8.60
2023-01-09T21:17:41.414Z,8.60
2023-01-09T21:20:12.859Z,8.60
2023-01-09T21:22:41.216Z,8.60
2023-01-09T21:25:09.850Z,8.60
2023-01-09T21:27:43.362Z,8.60
2023-01-09T21:30:12.491Z,8.60
2023-01-09T21:32:40.703Z,8.60
2023-01-09T21:35:09.650Z,8.60
2023-01-09T21:37:38.531Z,8.50
2023-01-09T21:40:12.644Z,8.50
2023-01-09T21:42:59.333Z,8.50
2023-01-09T21:45:44.827Z,8.50
2023-01-09T21:48:13.113Z,8.50
2023-01-09T21:50:42.229Z,8.40
2023-01-09T21:53:10.760Z,8.40
2023-01-09T21:55:38.959Z,8.40
2023-01-09T21:58:08.844Z,8.30
2023-01-09T22:00:37.152Z,8.30
2023-01-09T22:03:09.295Z,8.30
2023-01-09T22:05:38.157Z,8.30
2023-01-09T22:08:06.655Z,8.40
2023-01-09T22:10:34.890Z,8.40
2023-01-09T22:13:17.448Z,8.40
2023-01-09T22:15:48.224Z,8.30
2023-01-09T22:18:16.581Z,8.30
2023-01-09T22:20:46.463Z,8.30
2023-01-09T22:23:16.989Z,8.30
2023-01-09T22:25:45.205Z,8.20
2023-01-09T22:28:13.404Z,8.20
2023-01-09T22:30:41.912Z,8.20
2023-01-09T22:33:14.672Z,8.30
2023-01-09T22:35:44.220Z,8.30
2023-01-09T22:38:15.409Z,8.20
2023-01-09T22:40:43.625Z,8.20
2023-01-09T22:43:16.245Z,8.20
2023-01-09T22:45:44.558Z,8.20
2023-01-09T22:48:14.103Z,8.20
2023-01-09T22:50:42.392Z,8.10
2023-01-09T22:53:10.625Z,8.20
2023-01-09T22:55:38.797Z,8.20
2023-01-09T22:58:07.002Z,8.20
2023-01-09T23:00:35.239Z,8.20
2023-01-09T23:03:03.524Z,8.20
2023-01-09T23:05:33.208Z,8.20
2023-01-09T23:08:01.548Z,8.20
2023-01-09T23:10:29.805Z,8.20
2023-01-09T23:12:58.029Z,8.20
2023-01-09T23:15:26.354Z,8.30
2023-01-09T23:17:54.629Z,8.20
2023-01-09T23:20:22.915Z,8.20
2023-01-09T23:22:52.701Z,8.20
2023-01-09T23:25:20.942Z,8.20
2023-01-09T23:27:49.150Z,8.20
2023-01-09T23:30:19.729Z,8.20
2023-01-09T23:32:47.884Z,8.20
2023-01-09T23:35:17.271Z,8.10
2023-01-09T23:37:45.493Z,8.20
2023-01-09T23:40:15.118Z,8.10
2023-01-09T23:43:00.652Z,8.10
2023-01-09T23:45:28.942Z,8.00
2023-01-09T23:47:57.239Z,8.10
2023-01-09T23:50:27.648Z,8.10
2023-01-09T23:52:55.869Z,8.10
2023-01-09T23:55:25.796Z,8.10
2023-01-09T23:57:55.519Z,8.10
